createdAt,value
2023-01-31T00:00:48.748Z,15.10
2023-01-31T00:03:24.665Z,15.90
2023-01-31T00:05:54.205Z,17.70
2023-01-31T00:08:22.891Z,16.40
2023-01-31T00:10:50.659Z,16.20
2023-01-31T00:13:18.506Z,15.90
2023-01-31T00:15:49.377Z,16.90
2023-01-31T00:18:17.812Z,17.30
2023-01-31T00:20:45.748Z,23.90
2023-01-31T00:23:14.407Z,28.60
2023-01-31T00:25:42.252Z,35.70
2023-01-31T00:28:10.200Z,28.50
2023-01-31T00:30:38.238Z,27.80
2023-01-31T00:33:06.089Z,24.50
2023-01-31T00:35:33.973Z,21.20
2023-01-31T00:38:01.810Z,17.00
2023-01-31T00:40:29.639Z,16.70
2023-01-31T00:42:57.434Z,17.30
2023-01-31T00:45:25.288Z,17.10
2023-01-31T00:47:53.113Z,16.40
2023-01-31T00:50:21.398Z,14.50
2023-01-31T00:52:49.259Z,15.70
2023-01-31T00:55:17.245Z,15.60
2023-01-31T00:57:45.383Z,16.30
2023-01-31T01:00:14.039Z,13.80
2023-01-31T01:02:42.182Z,13.90
2023-01-31T01:05:10.237Z,15.20
2023-01-31T01:07:38.272Z,17.30
2023-01-31T01:10:07.214Z,16.20
2023-01-31T01:12:36.487Z,16.00
2023-01-31T01:15:05.207Z,15.20
2023-01-31T01:17:33.059Z,13.30
2023-01-31T01:20:03.819Z,13.60
2023-01-31T01:22:32.157Z,14.00
2023-01-31T01:25:00.530Z,14.40
2023-01-31T01:27:28.556Z,14.40
2023-01-31T01:29:56.530Z,14.80
2023-01-31T01:32:25.049Z,15.00
2023-01-31T01:34:53.634Z,16.10
2023-01-31T01:37:21.519Z,15.40
2023-01-31T01:39:50.556Z,16.20
2023-01-31T01:42:22.064Z,14.80
2023-01-31T01:44:56.362Z,14.30
2023-01-31T01:47:39.519Z,15.90
2023-01-31T01:50:31.153Z,16.50
2023-01-31T01:53:11.334Z,14.00
2023-01-31T01:55:47.474Z,14.60
2023-01-31T01:58:20.116Z,14.30
2023-01-31T02:00:50.125Z,13.80
2023-01-31T02:05:52.157Z,14.10
2023-01-31T02:08:24.201Z,17.50
2023-01-31T02:11:04.034Z,15.50
2023-01-31T02:13:32.399Z,15.80
2023-01-31T02:16:00.230Z,15.10
2023-01-31T02:18:28.309Z,13.40
2023-01-31T02:21:14.639Z,14.70
2023-01-31T02:24:16.419Z,13.90
2023-01-31T02:27:06.510Z,14.80
2023-01-31T02:29:46.561Z,13.10
2023-01-31T02:32:24.051Z,15.50
2023-01-31T02:35:15.167Z,16.00
2023-01-31T02:38:03.764Z,15.50
2023-01-31T02:40:54.183Z,17.60
2023-01-31T02:44:16.431Z,16.20
2023-01-31T02:46:56.773Z,14.90
2023-01-31T02:49:47.047Z,14.80
2023-01-31T02:52:43.776Z,14.30
2023-01-31T02:55:53.856Z,15.10
2023-01-31T02:58:25.516Z,14.40
2023-01-31T03:00:58.023Z,16.40
2023-01-31T03:03:31.231Z,17.30
2023-01-31T03:06:23.377Z,19.00
2023-01-31T03:09:02.555Z,16.60
2023-01-31T03:11:47.696Z,16.00
2023-01-31T03:14:27.363Z,14.80
2023-01-31T03:17:25.471Z,17.00
2023-01-31T03:20:18.863Z,14.70
2023-01-31T03:22:51.274Z,15.50
2023-01-31T03:25:24.505Z,14.40
2023-01-31T03:27:59.707Z,16.20
2023-01-31T03:30:40.160Z,16.00
2023-01-31T03:33:21.418Z,15.80
2023-01-31T03:35:57.668Z,16.90
2023-01-31T03:38:35.227Z,20.10
2023-01-31T03:41:13.843Z,18.00
2023-01-31T03:43:59.738Z,18.60
2023-01-31T03:46:41.347Z,17.70
2023-01-31T03:49:13.277Z,16.90
2023-01-31T03:51:48.608Z,16.60
2023-01-31T03:54:25.069Z,17.90
2023-01-31T03:57:02.597Z,16.70
2023-01-31T03:59:37.105Z,17.90
2023-01-31T04:02:09.153Z,17.30
2023-01-31T04:05:02.659Z,18.40
2023-01-31T04:07:32.480Z,19.50
2023-01-31T04:10:00.844Z,19.10
2023-01-31T04:12:28.802Z,17.60
2023-01-31T04:14:56.687Z,17.40
2023-01-31T04:17:24.528Z,17.20
2023-01-31T04:19:52.437Z,17.00
2023-01-31T04:22:20.361Z,17.20
2023-01-31T04:24:48.471Z,19.20
2023-01-31T04:27:16.335Z,17.90
2023-01-31T04:29:44.295Z,17.40
2023-01-31T04:32:12.169Z,17.90
2023-01-31T04:34:40.067Z,19.40
2023-01-31T04:37:08.105Z,20.70
2023-01-31T04:39:35.912Z,22.20
2023-01-31T04:42:04.354Z,19.30
2023-01-31T04:44:32.266Z,17.40
2023-01-31T04:47:00.234Z,17.40
2023-01-31T04:49:28.343Z,17.40
2023-01-31T04:51:56.217Z,17.40
2023-01-31T04:54:24.178Z,17.00
2023-01-31T04:56:52.035Z,17.90
2023-01-31T04:59:20.073Z,18.60
2023-01-31T05:01:48.045Z,17.00
2023-01-31T05:04:16.019Z,21.10
2023-01-31T05:06:43.860Z,22.10
2023-01-31T05:09:13.048Z,19.10
2023-01-31T05:11:41.497Z,18.60
2023-01-31T05:14:09.460Z,17.00
2023-01-31T05:16:37.450Z,16.20
2023-01-31T05:19:05.483Z,16.20
2023-01-31T05:21:53.555Z,19.00
2023-01-31T05:24:22.805Z,17.40
2023-01-31T05:26:53.013Z,20.00
2023-01-31T05:29:21.206Z,20.80
2023-01-31T05:31:54.340Z,19.70
2023-01-31T05:34:25.377Z,17.60
2023-01-31T05:36:53.269Z,28.90
2023-01-31T05:39:21.348Z,24.10
2023-01-31T05:41:49.427Z,20.60
2023-01-31T05:44:17.433Z,19.90
2023-01-31T05:46:45.663Z,20.10
2023-01-31T05:49:14.027Z,21.30
2023-01-31T05:51:42.572Z,19.30
2023-01-31T05:54:12.119Z,22.80
2023-01-31T05:56:39.993Z,25.40
2023-01-31T05:59:08.095Z,25.80
2023-01-31T06:01:36.131Z,21.60
2023-01-31T06:04:04.059Z,21.70
2023-01-31T06:06:33.475Z,23.10
2023-01-31T06:09:04.522Z,20.80
2023-01-31T06:11:32.439Z,19.90
2023-01-31T06:14:00.779Z,20.00
2023-01-31T06:16:28.724Z,19.70
2023-01-31T06:18:57.112Z,20.50
2023-01-31T06:21:25.068Z,20.40
2023-01-31T06:23:52.941Z,24.10
2023-01-31T06:26:20.850Z,26.20
2023-01-31T06:28:48.744Z,26.50
2023-01-31T06:31:16.652Z,23.20
2023-01-31T06:33:47.653Z,21.40
2023-01-31T06:36:19.188Z,22.20
2023-01-31T06:38:52.178Z,22.90
2023-01-31T06:41:21.060Z,23.40
2023-01-31T06:43:49.091Z,26.00
2023-01-31T06:46:17.914Z,21.40
2023-01-31T06:48:47.215Z,21.80
2023-01-31T06:51:19.794Z,20.90
2023-01-31T06:53:47.949Z,20.60
2023-01-31T06:56:16.220Z,19.80
2023-01-31T06:58:44.044Z,19.80
2023-01-31T07:01:13.746Z,21.60
2023-01-31T07:03:43.526Z,22.30
2023-01-31T07:06:12.099Z,22.90
2023-01-31T07:08:45.466Z,22.90
2023-01-31T07:11:13.313Z,24.10
2023-01-31T07:13:41.260Z,22.20
2023-01-31T07:16:09.194Z,20.90
2023-01-31T07:18:37.267Z,19.20
2023-01-31T07:21:06.354Z,19.20
2023-01-31T07:23:34.285Z,19.70
2023-01-31T07:26:06.614Z,20.60
2023-01-31T07:28:34.480Z,20.60
2023-01-31T07:31:12.636Z,28.00
2023-01-31T07:33:41.165Z,23.20
2023-01-31T07:36:13.758Z,27.80
2023-01-31T07:38:42.671Z,22.40
2023-01-31T07:41:11.762Z,22.10
2023-01-31T07:43:39.590Z,21.60
2023-01-31T07:46:10.471Z,18.90
2023-01-31T07:48:38.851Z,17.40
2023-01-31T07:51:07.619Z,16.80
2023-01-31T07:53:42.139Z,16.50
2023-01-31T07:56:13.093Z,17.00
2023-01-31T07:58:42.498Z,16.40
2023-01-31T08:01:38.360Z,17.60
2023-01-31T08:04:20.649Z,17.40
2023-01-31T08:06:53.065Z,16.00
2023-01-31T08:09:21.098Z,15.30
2023-01-31T08:11:49.275Z,14.30
2023-01-31T08:14:17.143Z,12.80
2023-01-31T08:16:45.317Z,11.70
2023-01-31T08:19:13.649Z,12.70
2023-01-31T08:21:41.629Z,12.20
2023-01-31T08:24:09.763Z,13.80
2023-01-31T08:26:37.711Z,14.50
2023-01-31T08:29:05.665Z,12.90
2023-01-31T08:31:33.897Z,14.40
2023-01-31T08:34:03.204Z,14.90
2023-01-31T08:36:32.074Z,15.50
2023-01-31T08:39:00.237Z,15.20
2023-01-31T08:41:29.422Z,16.40
2023-01-31T08:43:58.948Z,16.10
2023-01-31T08:46:31.159Z,13.80
2023-01-31T08:49:01.654Z,14.20
2023-01-31T08:51:30.329Z,13.20
2023-01-31T08:53:58.299Z,10.80
2023-01-31T08:56:26.379Z,11.40
2023-01-31T08:58:55.163Z,10.60
2023-01-31T09:01:23.462Z,11.00
2023-01-31T09:03:56.922Z,8.60
2023-01-31T09:06:27.596Z,9.90
2023-01-31T09:08:58.846Z,9.90
2023-01-31T09:11:30.278Z,8.60
2023-01-31T09:13:59.181Z,9.90
2023-01-31T09:16:27.358Z,9.20
2023-01-31T09:18:58.239Z,10.10
2023-01-31T09:21:26.296Z,10.20
2023-01-31T09:23:57.309Z,10.20
2023-01-31T09:26:26.030Z,10.60
2023-01-31T09:28:54.463Z,10.00
2023-01-31T09:31:22.353Z,11.20
2023-01-31T09:33:50.791Z,10.80
2023-01-31T09:36:21.065Z,10.50
2023-01-31T09:38:49.050Z,8.70
2023-01-31T09:41:38.810Z,9.20
2023-01-31T09:44:33.577Z,9.10
2023-01-31T09:47:21.855Z,8.90
2023-01-31T09:49:52.991Z,9.50
2023-01-31T09:52:22.735Z,9.70
2023-01-31T09:54:50.683Z,9.00
2023-01-31T09:57:36.719Z,8.70
2023-01-31T10:00:17.120Z,11.60
2023-01-31T10:02:54.682Z,9.30
2023-01-31T10:05:51.905Z,10.20
2023-01-31T10:08:36.662Z,11.30
2023-01-31T10:11:13.227Z,9.20
2023-01-31T10:13:51.799Z,11.70
2023-01-31T10:16:19.622Z,9.90
2023-01-31T10:18:55.454Z,10.40
2023-01-31T10:21:29.270Z,10.00
2023-01-31T10:24:05.737Z,10.10
2023-01-31T10:26:38.936Z,10.40
2023-01-31T10:29:29.616Z,10.90
2023-01-31T10:32:08.738Z,10.90
2023-01-31T10:34:43.201Z,11.30
2023-01-31T10:37:24.780Z,12.40
2023-01-31T10:39:57.514Z,10.10
2023-01-31T10:42:37.594Z,10.00
2023-01-31T10:45:08.504Z,10.20
2023-01-31T10:50:15.540Z,8.90
2023-01-31T10:53:01.784Z,9.30
2023-01-31T10:55:48.524Z,8.80
2023-01-31T10:58:20.416Z,9.40
2023-01-31T11:00:48.972Z,8.90
2023-01-31T11:03:17.312Z,11.20
2023-01-31T11:05:57.338Z,8.80
2023-01-31T11:08:32.692Z,8.30
2023-01-31T11:11:17.124Z,9.00
2023-01-31T11:14:07.604Z,8.20
2023-01-31T11:16:40.815Z,8.80
2023-01-31T11:19:32.709Z,9.10
2023-01-31T11:22:01.576Z,8.30
2023-01-31T11:24:33.329Z,8.70
2023-01-31T11:27:07.173Z,7.90
2023-01-31T11:30:04.191Z,8.20
2023-01-31T11:32:36.813Z,6.10
2023-01-31T11:35:16.047Z,7.00
2023-01-31T11:37:53.936Z,7.80
2023-01-31T11:40:42.703Z,7.20
2023-01-31T11:43:18.712Z,7.00
2023-01-31T11:45:54.881Z,7.30
2023-01-31T11:48:29.304Z,8.20
2023-01-31T11:51:01.474Z,8.90
2023-01-31T11:53:36.449Z,9.10
2023-01-31T11:56:20.229Z,9.80
2023-01-31T11:58:52.543Z,8.20
2023-01-31T12:01:23.217Z,7.20
2023-01-31T12:04:03.699Z,6.40
2023-01-31T12:09:24.438Z,7.60
2023-01-31T12:11:56.401Z,11.30
2023-01-31T12:14:40.626Z,8.40
2023-01-31T12:17:15.679Z,6.80
2023-01-31T12:19:50.988Z,6.70
2023-01-31T12:22:43.565Z,7.30
2023-01-31T12:25:46.475Z,8.10
2023-01-31T12:28:23.571Z,7.40
2023-01-31T12:31:19.611Z,8.70
2023-01-31T12:33:50.740Z,9.10
2023-01-31T12:36:35.214Z,8.40
2023-01-31T12:39:18.522Z,6.50
2023-01-31T12:42:02.366Z,9.80
2023-01-31T12:44:33.165Z,8.40
2023-01-31T12:47:20.452Z,7.50
2023-01-31T12:50:00.359Z,7.70
2023-01-31T12:52:40.319Z,8.30
2023-01-31T12:55:35.721Z,7.40
2023-01-31T12:58:34.228Z,9.10
2023-01-31T13:01:07.714Z,9.30
2023-01-31T13:03:57.616Z,9.70
2023-01-31T13:06:31.874Z,8.50
2023-01-31T13:09:08.966Z,9.00
2023-01-31T13:11:47.437Z,10.20
2023-01-31T13:14:23.864Z,9.00
2023-01-31T13:16:58.421Z,8.30
2023-01-31T13:19:28.594Z,8.90
2023-01-31T13:22:01.977Z,7.00
2023-01-31T13:24:38.752Z,7.10
2023-01-31T13:27:29.272Z,10.50
2023-01-31T13:30:11.838Z,9.80
2023-01-31T13:32:45.140Z,8.30
2023-01-31T13:35:12.939Z,7.40
2023-01-31T13:37:48.501Z,7.40
2023-01-31T13:40:24.035Z,15.70
2023-01-31T13:42:55.627Z,13.00
2023-01-31T13:45:34.181Z,12.90
2023-01-31T13:48:10.427Z,10.30
2023-01-31T13:51:03.285Z,12.70
2023-01-31T13:53:42.275Z,19.40
2023-01-31T13:56:16.434Z,16.40
2023-01-31T13:58:47.072Z,7.10
2023-01-31T14:01:27.931Z,8.60
2023-01-31T14:04:11.790Z,9.80
2023-01-31T14:07:16.526Z,7.60
2023-01-31T14:10:07.403Z,7.10
2023-01-31T14:12:37.314Z,8.40
2023-01-31T14:15:48.844Z,12.20
2023-01-31T14:18:45.367Z,14.60
2023-01-31T14:21:32.197Z,9.20
2023-01-31T14:24:04.155Z,12.30
2023-01-31T14:26:33.389Z,15.40
2023-01-31T14:29:14.238Z,10.20
2023-01-31T14:31:45.042Z,9.50
2023-01-31T14:34:26.468Z,8.60
2023-01-31T14:37:00.439Z,13.60
2023-01-31T14:39:56.383Z,11.70
2023-01-31T14:42:24.441Z,10.90
2023-01-31T14:45:34.204Z,11.10
2023-01-31T14:48:15.755Z,9.10
2023-01-31T14:51:02.042Z,9.00
2023-01-31T14:53:58.472Z,8.70
2023-01-31T14:56:44.644Z,7.90
2023-01-31T14:59:29.516Z,8.10
2023-01-31T15:01:58.367Z,10.20
2023-01-31T15:04:28.512Z,8.70
2023-01-31T15:06:59.479Z,9.30
2023-01-31T15:09:39.766Z,8.50
2023-01-31T15:12:45.977Z,12.00
2023-01-31T15:15:35.646Z,8.60
2023-01-31T15:18:13.532Z,12.40
2023-01-31T15:20:45.812Z,16.70
2023-01-31T15:23:27.110Z,22.00
2023-01-31T15:25:59.841Z,21.70
2023-01-31T15:28:38.877Z,13.50
2023-01-31T15:31:26.115Z,8.40
2023-01-31T15:33:59.515Z,9.60
2023-01-31T15:36:45.614Z,12.70
2023-01-31T15:39:32.789Z,10.40
2023-01-31T15:42:24.821Z,10.50
2023-01-31T15:45:12.513Z,20.20
2023-01-31T15:47:40.712Z,14.70
2023-01-31T15:50:17.092Z,15.60
2023-01-31T15:52:45.411Z,16.40
2023-01-31T15:55:19.658Z,15.50
2023-01-31T15:57:55.395Z,17.50
2023-01-31T16:00:28.168Z,23.10
2023-01-31T16:03:02.944Z,14.80
2023-01-31T16:05:40.411Z,15.50
2023-01-31T16:08:29.291Z,15.00
2023-01-31T16:11:06.023Z,17.30
2023-01-31T16:13:37.731Z,20.40
2023-01-31T16:16:14.228Z,14.40
2023-01-31T16:18:51.138Z,17.40
2023-01-31T16:21:38.268Z,16.60
2023-01-31T16:24:16.379Z,17.50
2023-01-31T16:27:05.838Z,21.90
2023-01-31T16:29:41.576Z,23.70
2023-01-31T16:32:21.750Z,19.70
2023-01-31T16:35:00.021Z,12.90
2023-01-31T16:37:35.593Z,18.70
2023-01-31T16:40:31.429Z,18.80
2023-01-31T16:43:27.634Z,19.30
2023-01-31T16:45:57.172Z,21.70
2023-01-31T16:48:33.594Z,23.30
2023-01-31T16:51:28.263Z,19.70
2023-01-31T16:54:24.398Z,25.60
2023-01-31T16:57:01.738Z,31.50
2023-01-31T16:59:38.825Z,20.70
2023-01-31T17:02:26.509Z,18.70
2023-01-31T17:05:01.076Z,17.70
2023-01-31T17:07:32.788Z,21.60
2023-01-31T17:10:05.120Z,16.30
2023-01-31T17:12:36.735Z,13.30
2023-01-31T17:15:17.009Z,12.10
2023-01-31T17:17:45.819Z,12.90
2023-01-31T17:20:16.282Z,14.80
2023-01-31T17:22:50.451Z,29.00
2023-01-31T17:25:28.011Z,41.50
2023-01-31T17:30:24.038Z,19.00
2023-01-31T17:32:52.302Z,17.60
2023-01-31T17:35:25.916Z,22.20
2023-01-31T17:37:54.211Z,33.20
2023-01-31T17:40:22.264Z,32.10
2023-01-31T17:43:17.778Z,26.50
2023-01-31T17:45:45.788Z,27.50
2023-01-31T17:48:17.364Z,33.60
2023-01-31T17:50:53.653Z,43.80
2023-01-31T17:53:22.101Z,37.90
2023-01-31T17:55:50.229Z,38.60
2023-01-31T17:58:18.449Z,37.70
2023-01-31T18:00:47.116Z,21.60
2023-01-31T18:03:20.398Z,21.40
2023-01-31T18:05:49.465Z,23.50
2023-01-31T18:08:18.136Z,21.10
2023-01-31T18:10:46.849Z,23.60
2023-01-31T18:13:18.320Z,17.10
2023-01-31T18:18:14.208Z,26.50
2023-01-31T18:20:48.946Z,31.00
2023-01-31T18:23:16.835Z,35.80
2023-01-31T18:25:46.816Z,44.40
2023-01-31T18:28:14.939Z,32.70
2023-01-31T18:30:42.922Z,24.90
2023-01-31T18:33:11.165Z,20.20
2023-01-31T18:35:39.143Z,16.60
2023-01-31T18:38:07.117Z,19.30
2023-01-31T18:40:35.081Z,21.40
2023-01-31T18:43:03.127Z,17.60
2023-01-31T18:45:31.067Z,16.90
2023-01-31T18:47:59.125Z,15.70
2023-01-31T18:50:27.065Z,16.50
2023-01-31T18:52:55.118Z,16.90
2023-01-31T18:55:23.551Z,19.70
2023-01-31T18:57:51.897Z,18.30
2023-01-31T19:00:20.583Z,20.10
2023-01-31T19:02:51.614Z,17.80
2023-01-31T19:05:23.734Z,13.40
2023-01-31T19:07:51.928Z,13.50
2023-01-31T19:10:19.812Z,14.90
2023-01-31T19:12:48.091Z,15.40
2023-01-31T19:15:16.102Z,15.50
2023-01-31T19:17:47.434Z,13.00
2023-01-31T19:20:15.565Z,10.70
2023-01-31T19:22:43.477Z,11.30
2023-01-31T19:25:12.066Z,11.40
2023-01-31T19:27:41.553Z,11.50
2023-01-31T19:30:10.340Z,16.80
2023-01-31T19:32:38.318Z,17.60
2023-01-31T19:35:13.021Z,17.00
2023-01-31T19:37:45.480Z,21.00
2023-01-31T19:40:13.701Z,18.60
2023-01-31T19:42:43.673Z,27.60
2023-01-31T19:45:11.814Z,25.70
2023-01-31T19:47:49.941Z,20.90
2023-01-31T19:50:19.276Z,16.20
2023-01-31T19:52:47.490Z,11.70
2023-01-31T19:55:15.584Z,8.20
2023-01-31T19:57:43.617Z,8.80
2023-01-31T20:00:12.589Z,10.80
2023-01-31T20:02:44.344Z,13.90
2023-01-31T20:05:15.778Z,12.80
2023-01-31T20:07:44.256Z,12.40
2023-01-31T20:10:13.044Z,16.80
2023-01-31T20:12:41.138Z,18.90
2023-01-31T20:15:10.063Z,20.10
2023-01-31T20:17:38.190Z,17.60
2023-01-31T20:20:07.389Z,8.70
2023-01-31T20:22:37.424Z,16.60
2023-01-31T20:25:05.925Z,12.10
2023-01-31T20:27:35.462Z,10.50
2023-01-31T20:30:03.969Z,8.00
2023-01-31T20:32:32.083Z,10.90
2023-01-31T20:35:01.724Z,10.00
2023-01-31T20:37:29.782Z,11.30
2023-01-31T20:39:57.863Z,16.20
2023-01-31T20:42:27.264Z,11.20
2023-01-31T20:44:55.224Z,8.40
2023-01-31T20:47:23.203Z,10.00
2023-01-31T20:49:51.144Z,10.60
2023-01-31T20:52:21.434Z,9.90
2023-01-31T20:54:49.595Z,9.80
2023-01-31T20:57:19.030Z,10.20
2023-01-31T20:59:47.131Z,10.70
2023-01-31T21:02:15.264Z,10.20
2023-01-31T21:04:43.304Z,9.50
2023-01-31T21:07:11.581Z,7.90
2023-01-31T21:09:39.638Z,8.60
2023-01-31T21:12:07.617Z,10.00
2023-01-31T21:14:35.614Z,7.40
2023-01-31T21:17:04.080Z,7.70
2023-01-31T21:19:31.970Z,7.80
2023-01-31T21:21:59.944Z,7.10
2023-01-31T21:24:27.879Z,7.40
2023-01-31T21:26:56.026Z,10.90
2023-01-31T21:29:24.274Z,13.90
2023-01-31T21:31:52.360Z,13.90
2023-01-31T21:34:20.480Z,14.50
2023-01-31T21:36:49.076Z,14.60
2023-01-31T21:39:17.003Z,9.60
2023-01-31T21:42:06.259Z,8.30
2023-01-31T21:44:34.395Z,7.50
2023-01-31T21:47:02.625Z,7.00
2023-01-31T21:49:30.760Z,7.20
2023-01-31T21:51:58.693Z,7.10
2023-01-31T21:54:28.449Z,7.30
2023-01-31T21:56:56.493Z,7.70
2023-01-31T21:59:24.598Z,7.20
2023-01-31T22:01:52.793Z,6.30
2023-01-31T22:04:21.090Z,5.90
2023-01-31T22:06:50.353Z,6.60
2023-01-31T22:09:18.416Z,6.80
2023-01-31T22:11:48.009Z,6.00
2023-01-31T22:14:18.822Z,6.30
2023-01-31T22:16:46.743Z,7.00
2023-01-31T22:19:14.698Z,6.60
2023-01-31T22:21:43.276Z,5.70
2023-01-31T22:24:11.759Z,6.10
2023-01-31T22:26:42.968Z,6.80
2023-01-31T22:29:14.095Z,7.30
2023-01-31T22:34:15.727Z,6.30
2023-01-31T22:36:43.709Z,6.50
2023-01-31T22:39:13.496Z,7.50
2023-01-31T22:41:42.164Z,6.60
2023-01-31T22:44:10.435Z,6.10
2023-01-31T22:46:38.580Z,5.70
2023-01-31T22:49:06.654Z,5.80
2023-01-31T22:51:34.578Z,4.60
2023-01-31T22:54:02.574Z,5.50
2023-01-31T22:56:32.093Z,6.90
2023-01-31T22:59:04.851Z,8.20
2023-01-31T23:01:35.769Z,7.50
2023-01-31T23:04:07.009Z,6.40
2023-01-31T23:06:35.800Z,6.30
2023-01-31T23:09:04.181Z,6.70
2023-01-31T23:11:32.049Z,8.90
2023-01-31T23:14:00.192Z,6.80
2023-01-31T23:16:46.514Z,7.20
2023-01-31T23:19:16.604Z,7.60
2023-01-31T23:21:45.214Z,6.00
2023-01-31T23:24:19.066Z,5.90
2023-01-31T23:26:47.351Z,9.50
2023-01-31T23:29:15.630Z,7.30
2023-01-31T23:31:43.583Z,6.70
2023-01-31T23:34:11.697Z,7.60
2023-01-31T23:36:39.775Z,6.80
2023-01-31T23:39:07.659Z,6.90
2023-01-31T23:41:35.721Z,5.60
2023-01-31T23:44:04.555Z,6.00
2023-01-31T23:46:32.553Z,6.10
2023-01-31T23:49:00.632Z,5.20
2023-01-31T23:51:30.736Z,5.10
2023-01-31T23:53:58.772Z,5.30
2023-01-31T23:56:26.703Z,5.30
2023-01-31T23:58:54.992Z,5.00
